sensor_id;sensor_type;location;lat;lon;timestamp;temperature;humidity
66710;DHT22;53624;0.000;0.000;2023-08-08T00:01:53;23.30;83.30
66710;DHT22;53624;0.000;0.000;2023-08-08T00:04:22;23.30;83.50
66710;DHT22;53624;0.000;0.000;2023-08-08T00:06:49;23.30;83.40
66710;DHT22;53624;0.000;0.000;2023-08-08T00:09:17;23.30;83.50
66710;DHT22;53624;0.000;0.000;2023-08-08T00:11:44;23.30;83.60
66710;DHT22;53624;0.000;0.000;2023-08-08T00:14:12;23.30;83.60
66710;DHT22;53624;0.000;0.000;2023-08-08T00:16:39;23.20;83.80
66710;DHT22;53624;0.000;0.000;2023-08-08T00:19:07;23.20;83.60
66710;DHT22;53624;0.000;0.000;2023-08-08T00:21:35;23.20;83.70
66710;DHT22;53624;0.000;0.000;2023-08-08T00:24:03;23.20;83.70
66710;DHT22;53624;0.000;0.000;2023-08-08T00:26:31;23.20;83.70
66710;DHT22;53624;0.000;0.000;2023-08-08T00:28:58;23.20;84.00
66710;DHT22;53624;0.000;0.000;2023-08-08T00:31:25;23.10;83.70
66710;DHT22;53624;0.000;0.000;2023-08-08T00:33:53;23.10;83.80
66710;DHT22;53624;0.000;0.000;2023-08-08T00:36:20;23.10;83.90
66710;DHT22;53624;0.000;0.000;2023-08-08T00:38:49;23.10;83.90
66710;DHT22;53624;0.000;0.000;2023-08-08T00:41:16;23.10;83.80
66710;DHT22;53624;0.000;0.000;2023-08-08T00:43:44;23.00;84.10
66710;DHT22;53624;0.000;0.000;2023-08-08T00:46:11;23.10;84.70
66710;DHT22;53624;0.000;0.000;2023-08-08T00:48:39;23.10;84.00
66710;DHT22;53624;0.000;0.000;2023-08-08T00:51:06;23.00;83.80
66710;DHT22;53624;0.000;0.000;2023-08-08T00:53:34;23.00;83.80
66710;DHT22;53624;0.000;0.000;2023-08-08T00:56:03;23.00;83.90
66710;DHT22;53624;0.000;0.000;2023-08-08T00:58:30;23.00;83.90
66710;DHT22;53624;0.000;0.000;2023-08-08T01:00:58;23.00;83.80
66710;DHT22;53624;0.000;0.000;2023-08-08T01:03:26;22.90;83.80
66710;DHT22;53624;0.000;0.000;2023-08-08T01:05:57;22.90;83.80
66710;DHT22;53624;0.000;0.000;2023-08-08T01:08:27;22.90;83.90
66710;DHT22;53624;0.000;0.000;2023-08-08T01:10:57;22.90;83.80
66710;DHT22;53624;0.000;0.000;2023-08-08T01:13:27;22.90;83.90
66710;DHT22;53624;0.000;0.000;2023-08-08T01:15:55;22.80;84.00
66710;DHT22;53624;0.000;0.000;2023-08-08T01:18:23;22.80;83.90
66710;DHT22;53624;0.000;0.000;2023-08-08T01:20:51;22.80;83.90
66710;DHT22;53624;0.000;0.000;2023-08-08T01:23:24;22.80;83.90
66710;DHT22;53624;0.000;0.000;2023-08-08T01:25:56;22.80;84.00
66710;DHT22;53624;0.000;0.000;2023-08-08T01:28:26;22.80;84.00
66710;DHT22;53624;0.000;0.000;2023-08-08T01:30:53;22.70;83.90
66710;DHT22;53624;0.000;0.000;2023-08-08T01:33:21;22.70;84.00
66710;DHT22;53624;0.000;0.000;2023-08-08T01:35:50;22.70;84.10
66710;DHT22;53624;0.000;0.000;2023-08-08T01:38:20;22.70;84.10
66710;DHT22;53624;0.000;0.000;2023-08-08T01:40:48;22.60;84.10
66710;DHT22;53624;0.000;0.000;2023-08-08T01:43:18;22.60;84.00
66710;DHT22;53624;0.000;0.000;2023-08-08T01:45:45;22.60;84.20
66710;DHT22;53624;0.000;0.000;2023-08-08T01:48:13;22.60;84.10
66710;DHT22;53624;0.000;0.000;2023-08-08T01:50:40;22.60;84.10
66710;DHT22;53624;0.000;0.000;2023-08-08T01:53:08;22.50;84.10
66710;DHT22;53624;0.000;0.000;2023-08-08T01:55:36;22.50;84.00
66710;DHT22;53624;0.000;0.000;2023-08-08T01:58:03;22.50;84.10
66710;DHT22;53624;0.000;0.000;2023-08-08T02:00:33;22.50;84.10
66710;DHT22;53624;0.000;0.000;2023-08-08T02:03:00;22.50;84.20
66710;DHT22;53624;0.000;0.000;2023-08-08T02:05:28;22.40;84.20
66710;DHT22;53624;0.000;0.000;2023-08-08T02:07:57;22.40;84.20
66710;DHT22;53624;0.000;0.000;2023-08-08T02:10:24;22.40;84.30
66710;DHT22;53624;0.000;0.000;2023-08-08T02:12:52;22.40;84.30
66710;DHT22;53624;0.000;0.000;2023-08-08T02:15:19;22.40;84.30
66710;DHT22;53624;0.000;0.000;2023-08-08T02:17:49;22.30;84.30
66710;DHT22;53624;0.000;0.000;2023-08-08T02:20:17;22.30;84.30
66710;DHT22;53624;0.000;0.000;2023-08-08T02:22:44;22.30;84.30
66710;DHT22;53624;0.000;0.000;2023-08-08T02:25:12;22.30;84.30
66710;DHT22;53624;0.000;0.000;2023-08-08T02:27:39;22.30;84.50
66710;DHT22;53624;0.000;0.000;2023-08-08T02:30:10;22.30;84.50
66710;DHT22;53624;0.000;0.000;2023-08-08T02:32:37;22.30;84.50
66710;DHT22;53624;0.000;0.000;2023-08-08T02:35:07;22.30;84.40
66710;DHT22;53624;0.000;0.000;2023-08-08T02:37:34;22.20;84.50
66710;DHT22;53624;0.000;0.000;2023-08-08T02:40:02;22.20;84.60
66710;DHT22;53624;0.000;0.000;2023-08-08T02:42:30;22.20;84.40
66710;DHT22;53624;0.000;0.000;2023-08-08T02:44:58;22.20;84.60
66710;DHT22;53624;0.000;0.000;2023-08-08T02:47:25;22.20;84.60
66710;DHT22;53624;0.000;0.000;2023-08-08T02:49:53;22.10;84.60
66710;DHT22;53624;0.000;0.000;2023-08-08T02:52:22;22.10;84.60
66710;DHT22;53624;0.000;0.000;2023-08-08T02:54:49;22.10;84.60
66710;DHT22;53624;0.000;0.000;2023-08-08T02:57:17;22.10;84.50
66710;DHT22;53624;0.000;0.000;2023-08-08T02:59:44;22.10;84.70
66710;DHT22;53624;0.000;0.000;2023-08-08T03:02:12;22.00;84.60
66710;DHT22;53624;0.000;0.000;2023-08-08T03:04:40;22.00;84.60
66710;DHT22;53624;0.000;0.000;2023-08-08T03:07:08;22.00;84.70
66710;DHT22;53624;0.000;0.000;2023-08-08T03:09:38;22.00;84.70
66710;DHT22;53624;0.000;0.000;2023-08-08T03:12:09;22.00;84.70
66710;DHT22;53624;0.000;0.000;2023-08-08T03:14:37;22.00;84.80
66710;DHT22;53624;0.000;0.000;2023-08-08T03:17:05;21.90;84.60
66710;DHT22;53624;0.000;0.000;2023-08-08T03:19:32;21.90;84.60
66710;DHT22;53624;0.000;0.000;2023-08-08T03:22:01;21.90;84.60
66710;DHT22;53624;0.000;0.000;2023-08-08T03:24:29;21.90;84.70
66710;DHT22;53624;0.000;0.000;2023-08-08T03:26:57;21.90;84.70
66710;DHT22;53624;0.000;0.000;2023-08-08T03:29:26;21.90;84.70
66710;DHT22;53624;0.000;0.000;2023-08-08T03:31:55;21.80;84.60
66710;DHT22;53624;0.000;0.000;2023-08-08T03:34:26;21.80;84.80
66710;DHT22;53624;0.000;0.000;2023-08-08T03:36:55;21.80;84.70
66710;DHT22;53624;0.000;0.000;2023-08-08T03:39:22;21.80;84.70
66710;DHT22;53624;0.000;0.000;2023-08-08T03:41:50;21.80;84.70
66710;DHT22;53624;0.000;0.000;2023-08-08T03:44:19;21.80;84.80
66710;DHT22;53624;0.000;0.000;2023-08-08T03:46:47;21.80;84.80
66710;DHT22;53624;0.000;0.000;2023-08-08T03:49:15;21.80;85.00
66710;DHT22;53624;0.000;0.000;2023-08-08T03:51:43;21.70;84.80
66710;DHT22;53624;0.000;0.000;2023-08-08T03:54:10;21.70;84.80
66710;DHT22;53624;0.000;0.000;2023-08-08T03:56:38;21.70;84.80
66710;DHT22;53624;0.000;0.000;2023-08-08T03:59:05;21.70;84.80
66710;DHT22;53624;0.000;0.000;2023-08-08T04:01:34;21.70;84.70
66710;DHT22;53624;0.000;0.000;2023-08-08T04:04:02;21.70;84.80
66710;DHT22;53624;0.000;0.000;2023-08-08T04:06:29;21.70;84.80
66710;DHT22;53624;0.000;0.000;2023-08-08T04:08:56;21.60;84.80
66710;DHT22;53624;0.000;0.000;2023-08-08T04:11:24;21.70;84.80
66710;DHT22;53624;0.000;0.000;2023-08-08T04:13:51;21.60;84.70
66710;DHT22;53624;0.000;0.000;2023-08-08T04:16:19;21.60;84.70
66710;DHT22;53624;0.000;0.000;2023-08-08T04:18:48;21.60;84.70
66710;DHT22;53624;0.000;0.000;2023-08-08T04:21:15;21.60;84.70
66710;DHT22;53624;0.000;0.000;2023-08-08T04:23:42;21.60;84.70
66710;DHT22;53624;0.000;0.000;2023-08-08T04:26:10;21.60;84.70
66710;DHT22;53624;0.000;0.000;2023-08-08T04:28:37;21.60;84.70
66710;DHT22;53624;0.000;0.000;2023-08-08T04:31:05;21.60;84.70
66710;DHT22;53624;0.000;0.000;2023-08-08T04:33:32;21.50;84.60
66710;DHT22;53624;0.000;0.000;2023-08-08T04:36:01;21.50;84.70
66710;DHT22;53624;0.000;0.000;2023-08-08T04:38:28;21.50;84.70
66710;DHT22;53624;0.000;0.000;2023-08-08T04:40:56;21.50;84.70
66710;DHT22;53624;0.000;0.000;2023-08-08T04:43:23;21.50;84.70
66710;DHT22;53624;0.000;0.000;2023-08-08T04:45:51;21.50;84.50
66710;DHT22;53624;0.000;0.000;2023-08-08T04:48:18;21.50;84.60
66710;DHT22;53624;0.000;0.000;2023-08-08T04:50:45;21.50;84.60
66710;DHT22;53624;0.000;0.000;2023-08-08T04:53:14;21.50;84.50
66710;DHT22;53624;0.000;0.000;2023-08-08T04:55:42;21.50;84.50
66710;DHT22;53624;0.000;0.000;2023-08-08T04:58:09;21.50;84.50
66710;DHT22;53624;0.000;0.000;2023-08-08T05:00:36;21.50;84.40
66710;DHT22;53624;0.000;0.000;2023-08-08T05:03:04;21.50;84.40
66710;DHT22;53624;0.000;0.000;2023-08-08T05:05:31;21.50;84.40
66710;DHT22;53624;0.000;0.000;2023-08-08T05:07:59;21.50;84.50
66710;DHT22;53624;0.000;0.000;2023-08-08T05:10:28;21.50;84.50
66710;DHT22;53624;0.000;0.000;2023-08-08T05:12:55;21.50;84.40
66710;DHT22;53624;0.000;0.000;2023-08-08T05:15:23;21.50;84.40
66710;DHT22;53624;0.000;0.000;2023-08-08T05:17:50;21.50;84.40
66710;DHT22;53624;0.000;0.000;2023-08-08T05:20:20;21.50;84.50
66710;DHT22;53624;0.000;0.000;2023-08-08T05:22:47;21.50;84.40
66710;DHT22;53624;0.000;0.000;2023-08-08T05:25:15;21.50;84.40
66710;DHT22;53624;0.000;0.000;2023-08-08T05:27:43;21.50;84.30
66710;DHT22;53624;0.000;0.000;2023-08-08T05:30:11;21.50;84.30
66710;DHT22;53624;0.000;0.000;2023-08-08T05:32:38;21.50;84.40
66710;DHT22;53624;0.000;0.000;2023-08-08T05:35:06;21.50;84.40
66710;DHT22;53624;0.000;0.000;2023-08-08T05:37:34;21.50;84.30
66710;DHT22;53624;0.000;0.000;2023-08-08T05:40:01;21.50;84.30
66710;DHT22;53624;0.000;0.000;2023-08-08T05:42:32;21.50;84.30
66710;DHT22;53624;0.000;0.000;2023-08-08T05:45:01;21.50;84.30
66710;DHT22;53624;0.000;0.000;2023-08-08T05:47:28;21.50;84.20
66710;DHT22;53624;0.000;0.000;2023-08-08T05:49:55;21.50;84.30
66710;DHT22;53624;0.000;0.000;2023-08-08T05:52:23;21.50;84.20
66710;DHT22;53624;0.000;0.000;2023-08-08T05:54:50;21.50;84.10
66710;DHT22;53624;0.000;0.000;2023-08-08T05:57:18;21.50;84.30
66710;DHT22;53624;0.000;0.000;2023-08-08T05:59:47;21.60;84.20
66710;DHT22;53624;0.000;0.000;2023-08-08T06:02:16;21.60;84.20
66710;DHT22;53624;0.000;0.000;2023-08-08T06:04:43;21.60;84.00
66710;DHT22;53624;0.000;0.000;2023-08-08T06:07:11;21.60;84.00
66710;DHT22;53624;0.000;0.000;2023-08-08T06:09:38;21.70;84.00
66710;DHT22;53624;0.000;0.000;2023-08-08T06:12:06;21.70;83.80
66710;DHT22;53624;0.000;0.000;2023-08-08T06:14:34;21.70;83.60
66710;DHT22;53624;0.000;0.000;2023-08-08T06:17:01;21.80;83.50
66710;DHT22;53624;0.000;0.000;2023-08-08T06:19:30;21.80;83.30
66710;DHT22;53624;0.000;0.000;2023-08-08T06:21:57;21.90;83.10
66710;DHT22;53624;0.000;0.000;2023-08-08T06:24:25;22.00;83.00
66710;DHT22;53624;0.000;0.000;2023-08-08T06:26:52;22.00;82.80
66710;DHT22;53624;0.000;0.000;2023-08-08T06:29:20;22.20;82.60
66710;DHT22;53624;0.000;0.000;2023-08-08T06:31:47;22.30;82.30
66710;DHT22;53624;0.000;0.000;2023-08-08T06:34:15;22.40;82.00
66710;DHT22;53624;0.000;0.000;2023-08-08T06:36:43;22.50;81.80
66710;DHT22;53624;0.000;0.000;2023-08-08T06:39:12;22.60;81.50
66710;DHT22;53624;0.000;0.000;2023-08-08T06:41:40;22.80;81.40
66710;DHT22;53624;0.000;0.000;2023-08-08T06:44:09;22.90;81.00
66710;DHT22;53624;0.000;0.000;2023-08-08T06:46:36;23.00;81.20
66710;DHT22;53624;0.000;0.000;2023-08-08T06:49:04;23.10;80.80
66710;DHT22;53624;0.000;0.000;2023-08-08T06:51:33;23.20;81.40
66710;DHT22;53624;0.000;0.000;2023-08-08T06:54:02;23.30;80.00
66710;DHT22;53624;0.000;0.000;2023-08-08T06:56:29;23.50;79.50
66710;DHT22;53624;0.000;0.000;2023-08-08T06:58:56;23.60;79.10
66710;DHT22;53624;0.000;0.000;2023-08-08T07:01:24;23.70;78.70
66710;DHT22;53624;0.000;0.000;2023-08-08T07:03:51;24.00;78.30
66710;DHT22;53624;0.000;0.000;2023-08-08T07:06:19;24.20;77.80
66710;DHT22;53624;0.000;0.000;2023-08-08T07:08:46;24.40;77.30
66710;DHT22;53624;0.000;0.000;2023-08-08T07:11:15;24.60;76.90
66710;DHT22;53624;0.000;0.000;2023-08-08T07:13:43;24.90;76.50
66710;DHT22;53624;0.000;0.000;2023-08-08T07:16:10;25.20;76.10
66710;DHT22;53624;0.000;0.000;2023-08-08T07:18:37;25.50;75.40
66710;DHT22;53624;0.000;0.000;2023-08-08T07:21:05;25.80;74.90
66710;DHT22;53624;0.000;0.000;2023-08-08T07:23:33;26.20;74.50
66710;DHT22;53624;0.000;0.000;2023-08-08T07:26:00;26.50;73.80
66710;DHT22;53624;0.000;0.000;2023-08-08T07:28:29;26.80;73.20
66710;DHT22;53624;0.000;0.000;2023-08-08T07:30:56;27.20;72.80
66710;DHT22;53624;0.000;0.000;2023-08-08T07:33:24;27.50;72.30
66710;DHT22;53624;0.000;0.000;2023-08-08T07:35:51;27.80;71.50
66710;DHT22;53624;0.000;0.000;2023-08-08T07:38:19;28.10;71.00
66710;DHT22;53624;0.000;0.000;2023-08-08T07:40:46;28.50;70.30
66710;DHT22;53624;0.000;0.000;2023-08-08T07:43:14;28.80;69.60
66710;DHT22;53624;0.000;0.000;2023-08-08T07:45:43;29.10;69.30
66710;DHT22;53624;0.000;0.000;2023-08-08T07:48:10;29.40;68.60
66710;DHT22;53624;0.000;0.000;2023-08-08T07:50:38;29.70;68.20
66710;DHT22;53624;0.000;0.000;2023-08-08T07:53:05;30.10;68.00
66710;DHT22;53624;0.000;0.000;2023-08-08T07:55:33;30.30;67.40
66710;DHT22;53624;0.000;0.000;2023-08-08T07:58:00;30.60;67.10
66710;DHT22;53624;0.000;0.000;2023-08-08T08:00:28;30.80;66.70
66710;DHT22;53624;0.000;0.000;2023-08-08T08:02:56;30.90;66.40
66710;DHT22;53624;0.000;0.000;2023-08-08T08:05:24;31.10;66.20
66710;DHT22;53624;0.000;0.000;2023-08-08T08:07:51;31.40;65.70
66710;DHT22;53624;0.000;0.000;2023-08-08T08:10:19;31.50;65.20
66710;DHT22;53624;0.000;0.000;2023-08-08T08:12:46;31.70;65.10
66710;DHT22;53624;0.000;0.000;2023-08-08T08:15:14;31.30;65.30
66710;DHT22;53624;0.000;0.000;2023-08-08T08:17:41;30.80;66.50
66710;DHT22;53624;0.000;0.000;2023-08-08T08:20:10;30.30;67.60
66710;DHT22;53624;0.000;0.000;2023-08-08T08:22:38;30.10;68.30
66710;DHT22;53624;0.000;0.000;2023-08-08T08:25:06;30.00;68.70
66710;DHT22;53624;0.000;0.000;2023-08-08T08:27:35;30.00;68.80
66710;DHT22;53624;0.000;0.000;2023-08-08T08:30:03;30.10;68.80
66710;DHT22;53624;0.000;0.000;2023-08-08T08:32:31;30.20;68.80
66710;DHT22;53624;0.000;0.000;2023-08-08T08:34:59;30.30;68.80
66710;DHT22;53624;0.000;0.000;2023-08-08T08:37:28;30.40;68.70
66710;DHT22;53624;0.000;0.000;2023-08-08T08:39:55;30.50;68.60
66710;DHT22;53624;0.000;0.000;2023-08-08T08:42:23;30.60;68.60
66710;DHT22;53624;0.000;0.000;2023-08-08T08:44:51;30.60;68.40
66710;DHT22;53624;0.000;0.000;2023-08-08T08:47:19;30.70;68.60
66710;DHT22;53624;0.000;0.000;2023-08-08T08:49:47;30.80;68.60
66710;DHT22;53624;0.000;0.000;2023-08-08T08:52:14;30.80;68.50
66710;DHT22;53624;0.000;0.000;2023-08-08T08:54:43;30.90;69.30
66710;DHT22;53624;0.000;0.000;2023-08-08T08:57:11;30.90;68.40
66710;DHT22;53624;0.000;0.000;2023-08-08T08:59:39;31.00;68.30
66710;DHT22;53624;0.000;0.000;2023-08-08T09:02:07;31.00;68.30
66710;DHT22;53624;0.000;0.000;2023-08-08T09:04:35;31.10;68.50
66710;DHT22;53624;0.000;0.000;2023-08-08T09:07:02;31.10;68.30
66710;DHT22;53624;0.000;0.000;2023-08-08T09:09:31;31.20;68.50
66710;DHT22;53624;0.000;0.000;2023-08-08T09:12:00;31.20;68.50
66710;DHT22;53624;0.000;0.000;2023-08-08T09:14:28;31.30;68.50
66710;DHT22;53624;0.000;0.000;2023-08-08T09:16:55;31.30;68.40
66710;DHT22;53624;0.000;0.000;2023-08-08T09:19:23;31.30;68.30
66710;DHT22;53624;0.000;0.000;2023-08-08T09:21:52;31.40;68.40
66710;DHT22;53624;0.000;0.000;2023-08-08T09:24:19;31.40;68.40
66710;DHT22;53624;0.000;0.000;2023-08-08T09:26:47;31.40;68.30
66710;DHT22;53624;0.000;0.000;2023-08-08T09:29:16;31.40;68.30
66710;DHT22;53624;0.000;0.000;2023-08-08T09:31:44;31.40;68.30
66710;DHT22;53624;0.000;0.000;2023-08-08T09:34:13;31.40;68.30
66710;DHT22;53624;0.000;0.000;2023-08-08T09:36:40;31.50;68.40
66710;DHT22;53624;0.000;0.000;2023-08-08T09:39:08;31.40;68.20
66710;DHT22;53624;0.000;0.000;2023-08-08T09:41:35;31.40;68.30
66710;DHT22;53624;0.000;0.000;2023-08-08T09:44:03;31.50;68.40
66710;DHT22;53624;0.000;0.000;2023-08-08T09:46:31;31.50;68.30
66710;DHT22;53624;0.000;0.000;2023-08-08T09:48:59;31.50;68.40
66710;DHT22;53624;0.000;0.000;2023-08-08T09:51:27;31.50;69.20
66710;DHT22;53624;0.000;0.000;2023-08-08T09:53:55;31.50;68.50
66710;DHT22;53624;0.000;0.000;2023-08-08T09:56:23;31.50;68.70
66710;DHT22;53624;0.000;0.000;2023-08-08T09:58:51;31.50;68.60
66710;DHT22;53624;0.000;0.000;2023-08-08T10:01:18;31.50;68.50
66710;DHT22;53624;0.000;0.000;2023-08-08T10:03:48;31.40;68.60
66710;DHT22;53624;0.000;0.000;2023-08-08T10:06:15;31.40;68.70
66710;DHT22;53624;0.000;0.000;2023-08-08T10:08:42;31.40;68.70
66710;DHT22;53624;0.000;0.000;2023-08-08T10:11:10;31.40;69.10
66710;DHT22;53624;0.000;0.000;2023-08-08T10:13:38;31.50;69.00
66710;DHT22;53624;0.000;0.000;2023-08-08T10:16:07;31.40;69.20
66710;DHT22;53624;0.000;0.000;2023-08-08T10:18:35;31.40;69.30
66710;DHT22;53624;0.000;0.000;2023-08-08T10:21:05;31.40;69.20
66710;DHT22;53624;0.000;0.000;2023-08-08T10:23:36;31.40;69.40
66710;DHT22;53624;0.000;0.000;2023-08-08T10:26:03;31.40;69.40
66710;DHT22;53624;0.000;0.000;2023-08-08T10:28:32;31.40;69.60
66710;DHT22;53624;0.000;0.000;2023-08-08T10:31:00;31.40;69.70
66710;DHT22;53624;0.000;0.000;2023-08-08T10:33:33;31.40;69.60
66710;DHT22;53624;0.000;0.000;2023-08-08T10:36:07;31.30;69.70
66710;DHT22;53624;0.000;0.000;2023-08-08T10:38:41;31.40;69.80
66710;DHT22;53624;0.000;0.000;2023-08-08T10:41:10;31.30;69.80
66710;DHT22;53624;0.000;0.000;2023-08-08T10:43:38;31.40;69.80
66710;DHT22;53624;0.000;0.000;2023-08-08T10:46:06;31.50;69.80
66710;DHT22;53624;0.000;0.000;2023-08-08T10:48:34;31.50;70.00
66710;DHT22;53624;0.000;0.000;2023-08-08T10:51:02;31.60;69.90
66710;DHT22;53624;0.000;0.000;2023-08-08T10:53:31;31.60;70.00
66710;DHT22;53624;0.000;0.000;2023-08-08T10:55:59;31.60;69.90
66710;DHT22;53624;0.000;0.000;2023-08-08T10:58:36;31.60;69.90
66710;DHT22;53624;0.000;0.000;2023-08-08T11:01:04;31.60;70.00
66710;DHT22;53624;0.000;0.000;2023-08-08T11:03:34;31.60;70.30
66710;DHT22;53624;0.000;0.000;2023-08-08T11:06:01;31.70;70.30
66710;DHT22;53624;0.000;0.000;2023-08-08T11:08:30;31.70;70.30
66710;DHT22;53624;0.000;0.000;2023-08-08T11:10:58;31.70;70.30
66710;DHT22;53624;0.000;0.000;2023-08-08T11:13:26;31.80;70.30
66710;DHT22;53624;0.000;0.000;2023-08-08T11:15:53;31.70;70.30
66710;DHT22;53624;0.000;0.000;2023-08-08T11:18:21;31.70;70.40
66710;DHT22;53624;0.000;0.000;2023-08-08T11:20:49;31.60;70.60
66710;DHT22;53624;0.000;0.000;2023-08-08T11:23:16;31.50;70.70
66710;DHT22;53624;0.000;0.000;2023-08-08T11:25:46;31.60;70.80
66710;DHT22;53624;0.000;0.000;2023-08-08T11:28:14;31.70;70.60
66710;DHT22;53624;0.000;0.000;2023-08-08T11:30:42;31.80;70.60
66710;DHT22;53624;0.000;0.000;2023-08-08T11:33:12;31.80;70.50
66710;DHT22;53624;0.000;0.000;2023-08-08T11:35:43;31.80;70.50
66710;DHT22;53624;0.000;0.000;2023-08-08T11:38:11;31.80;70.30
66710;DHT22;53624;0.000;0.000;2023-08-08T11:40:40;31.80;70.20
66710;DHT22;53624;0.000;0.000;2023-08-08T11:43:09;31.90;70.50
66710;DHT22;53624;0.000;0.000;2023-08-08T11:45:37;31.80;70.40
66710;DHT22;53624;0.000;0.000;2023-08-08T11:48:05;31.90;70.30
66710;DHT22;53624;0.000;0.000;2023-08-08T11:50:32;32.00;70.30
66710;DHT22;53624;0.000;0.000;2023-08-08T11:53:00;32.00;70.10
66710;DHT22;53624;0.000;0.000;2023-08-08T11:55:28;32.00;69.90
66710;DHT22;53624;0.000;0.000;2023-08-08T11:57:56;32.10;70.10
66710;DHT22;53624;0.000;0.000;2023-08-08T12:00:27;32.10;70.10
66710;DHT22;53624;0.000;0.000;2023-08-08T12:02:56;32.10;69.80
66710;DHT22;53624;0.000;0.000;2023-08-08T12:05:24;32.10;69.50
66710;DHT22;53624;0.000;0.000;2023-08-08T12:07:51;32.20;69.30
66710;DHT22;53624;0.000;0.000;2023-08-08T12:10:20;32.20;69.20
66710;DHT22;53624;0.000;0.000;2023-08-08T12:12:52;32.20;69.10
66710;DHT22;53624;0.000;0.000;2023-08-08T12:15:19;32.30;69.20
66710;DHT22;53624;0.000;0.000;2023-08-08T12:17:48;32.30;69.10
66710;DHT22;53624;0.000;0.000;2023-08-08T12:20:16;32.30;69.10
66710;DHT22;53624;0.000;0.000;2023-08-08T12:22:43;32.30;69.10
66710;DHT22;53624;0.000;0.000;2023-08-08T12:25:11;32.30;68.90
66710;DHT22;53624;0.000;0.000;2023-08-08T12:27:38;32.40;68.90
66710;DHT22;53624;0.000;0.000;2023-08-08T12:30:06;32.40;68.80
66710;DHT22;53624;0.000;0.000;2023-08-08T12:32:34;32.40;68.60
66710;DHT22;53624;0.000;0.000;2023-08-08T12:35:03;32.50;68.70
66710;DHT22;53624;0.000;0.000;2023-08-08T12:37:31;32.50;68.70
66710;DHT22;53624;0.000;0.000;2023-08-08T12:39:58;32.60;68.80
66710;DHT22;53624;0.000;0.000;2023-08-08T12:42:26;32.60;68.80
66710;DHT22;53624;0.000;0.000;2023-08-08T12:44:53;32.60;68.60
66710;DHT22;53624;0.000;0.000;2023-08-08T12:47:21;32.60;68.60
66710;DHT22;53624;0.000;0.000;2023-08-08T12:49:48;32.60;68.40
66710;DHT22;53624;0.000;0.000;2023-08-08T12:52:17;32.70;68.30
66710;DHT22;53624;0.000;0.000;2023-08-08T12:54:44;32.80;68.10
66710;DHT22;53624;0.000;0.000;2023-08-08T12:57:12;32.80;68.20
66710;DHT22;53624;0.000;0.000;2023-08-08T12:59:40;32.70;68.30
66710;DHT22;53624;0.000;0.000;2023-08-08T13:02:07;32.60;68.60
66710;DHT22;53624;0.000;0.000;2023-08-08T13:04:35;32.60;68.70
66710;DHT22;53624;0.000;0.000;2023-08-08T13:07:02;32.70;68.60
66710;DHT22;53624;0.000;0.000;2023-08-08T13:09:31;32.70;68.60
66710;DHT22;53624;0.000;0.000;2023-08-08T13:11:59;32.80;68.50
66710;DHT22;53624;0.000;0.000;2023-08-08T13:14:26;32.80;68.30
66710;DHT22;53624;0.000;0.000;2023-08-08T13:16:53;32.90;68.40
66710;DHT22;53624;0.000;0.000;2023-08-08T13:19:21;32.90;68.50
66710;DHT22;53624;0.000;0.000;2023-08-08T13:21:50;32.90;68.60
66710;DHT22;53624;0.000;0.000;2023-08-08T13:24:18;32.90;68.50
66710;DHT22;53624;0.000;0.000;2023-08-08T13:26:48;32.90;68.60
66710;DHT22;53624;0.000;0.000;2023-08-08T13:29:15;32.90;68.50
66710;DHT22;53624;0.000;0.000;2023-08-08T13:31:43;32.90;68.80
66710;DHT22;53624;0.000;0.000;2023-08-08T13:34:10;32.90;68.80
66710;DHT22;53624;0.000;0.000;2023-08-08T13:36:38;33.00;68.70
66710;DHT22;53624;0.000;0.000;2023-08-08T13:39:05;33.00;68.70
66710;DHT22;53624;0.000;0.000;2023-08-08T13:41:32;33.10;68.80
66710;DHT22;53624;0.000;0.000;2023-08-08T13:44:01;33.10;68.60
66710;DHT22;53624;0.000;0.000;2023-08-08T13:46:29;33.10;68.70
66710;DHT22;53624;0.000;0.000;2023-08-08T13:48:56;33.10;68.40
66710;DHT22;53624;0.000;0.000;2023-08-08T13:51:24;33.10;68.00
66710;DHT22;53624;0.000;0.000;2023-08-08T13:53:51;33.20;68.50
66710;DHT22;53624;0.000;0.000;2023-08-08T13:56:19;33.20;68.50
66710;DHT22;53624;0.000;0.000;2023-08-08T13:58:46;33.10;68.60
66710;DHT22;53624;0.000;0.000;2023-08-08T14:01:15;33.10;68.80
66710;DHT22;53624;0.000;0.000;2023-08-08T14:03:43;33.20;69.10
66710;DHT22;53624;0.000;0.000;2023-08-08T14:06:10;33.20;69.20
66710;DHT22;53624;0.000;0.000;2023-08-08T14:08:37;33.20;69.10
66710;DHT22;53624;0.000;0.000;2023-08-08T14:11:05;33.20;69.20
66710;DHT22;53624;0.000;0.000;2023-08-08T14:13:32;33.20;69.10
66710;DHT22;53624;0.000;0.000;2023-08-08T14:16:00;33.20;69.20
66710;DHT22;53624;0.000;0.000;2023-08-08T14:18:29;33.20;69.20
66710;DHT22;53624;0.000;0.000;2023-08-08T14:20:57;33.30;69.20
66710;DHT22;53624;0.000;0.000;2023-08-08T14:23:24;33.30;69.30
66710;DHT22;53624;0.000;0.000;2023-08-08T14:25:51;33.20;69.30
66710;DHT22;53624;0.000;0.000;2023-08-08T14:28:19;33.20;69.30
66710;DHT22;53624;0.000;0.000;2023-08-08T14:30:46;33.30;69.70
66710;DHT22;53624;0.000;0.000;2023-08-08T14:33:14;33.20;69.60
66710;DHT22;53624;0.000;0.000;2023-08-08T14:35:43;33.20;69.50
66710;DHT22;53624;0.000;0.000;2023-08-08T14:38:11;33.20;69.50
66710;DHT22;53624;0.000;0.000;2023-08-08T14:40:38;33.20;69.30
66710;DHT22;53624;0.000;0.000;2023-08-08T14:43:05;33.20;69.40
66710;DHT22;53624;0.000;0.000;2023-08-08T14:45:36;33.20;69.40
66710;DHT22;53624;0.000;0.000;2023-08-08T14:48:04;33.20;69.40
66710;DHT22;53624;0.000;0.000;2023-08-08T14:50:32;33.20;69.50
66710;DHT22;53624;0.000;0.000;2023-08-08T14:53:01;33.20;69.30
66710;DHT22;53624;0.000;0.000;2023-08-08T14:55:29;33.20;69.50
66710;DHT22;53624;0.000;0.000;2023-08-08T14:57:56;33.20;69.50
66710;DHT22;53624;0.000;0.000;2023-08-08T15:00:23;33.20;69.50
66710;DHT22;53624;0.000;0.000;2023-08-08T15:02:51;33.20;69.40
66710;DHT22;53624;0.000;0.000;2023-08-08T15:05:18;33.20;69.60
66710;DHT22;53624;0.000;0.000;2023-08-08T15:07:46;33.20;69.90
66710;DHT22;53624;0.000;0.000;2023-08-08T15:10:15;33.10;69.80
66710;DHT22;53624;0.000;0.000;2023-08-08T15:12:42;33.10;70.10
66710;DHT22;53624;0.000;0.000;2023-08-08T15:15:10;33.10;70.10
66710;DHT22;53624;0.000;0.000;2023-08-08T15:17:37;33.10;70.10
66710;DHT22;53624;0.000;0.000;2023-08-08T15:20:05;33.10;70.20
66710;DHT22;53624;0.000;0.000;2023-08-08T15:22:33;33.10;70.20
66710;DHT22;53624;0.000;0.000;2023-08-08T15:25:00;33.10;70.10
66710;DHT22;53624;0.000;0.000;2023-08-08T15:27:29;33.10;70.00
66710;DHT22;53624;0.000;0.000;2023-08-08T15:29:57;33.10;70.20
66710;DHT22;53624;0.000;0.000;2023-08-08T15:32:24;33.00;70.20
66710;DHT22;53624;0.000;0.000;2023-08-08T15:34:52;33.00;70.30
66710;DHT22;53624;0.000;0.000;2023-08-08T15:37:19;33.00;70.30
66710;DHT22;53624;0.000;0.000;2023-08-08T15:39:46;33.00;70.10
66710;DHT22;53624;0.000;0.000;2023-08-08T15:42:14;32.90;70.70
66710;DHT22;53624;0.000;0.000;2023-08-08T15:44:43;32.90;70.30
66710;DHT22;53624;0.000;0.000;2023-08-08T15:47:10;32.90;70.40
66710;DHT22;53624;0.000;0.000;2023-08-08T15:49:37;32.80;70.40